Time;durP1;ratioP1;P1;durP2;ratioP2;P2;SDS_P1;SDS_P2;PMS_P1;PMS_P2;Temp;Humidity;BMP_temperature;BMP_pressure;BME280_temperature;BME280_humidity;BME280_pressure;Samples;Min_cycle;Max_cycle;Signal;HPM_P1;HPM_P2
2022/01/18 10:00:46;;;;;;;1.52;1.25;;;;;;;9.37;57.96;99077.15;1799436;79;23419;-57
2022/01/18 10:03:35;;;;;;;2.77;1.07;;;;;;;11.68;47.82;99076.69;1763263;80;21522;-58
2022/01/18 10:06:03;;;;;;;1.42;0.98;;;;;;;29.64;59.12;99023.69;1758447;80;21715;-57
2022/01/18 10:08:30;;;;;;;1.35;1.00;;;;;;;15.84;40.21;99044.55;1764253;80;21597;-57
2022/01/18 10:11:02;;;;;;;1.65;1.20;;;;;;;17.26;55.81;99051.80;1756704;80;21079;-56
2022/01/18 10:13:31;;;;;;;2.25;0.95;;;;;;;15.70;42.92;99073.83;1760627;80;21551;-59
2022/01/18 10:16:11;;;;;;;1.40;1.00;;;;;;;14.84;48.15;99075.97;1753246;80;21461;-57
2022/01/18 10:18:47;;;;;;;1.47;0.93;;;;;;;14.60;42.55;99089.46;1704191;83;22504;-60
2022/01/18 10:21:35;;;;;;;1.65;1.17;;;;;;;14.14;42.61;99097.80;1694921;83;21538;-59
2022/01/18 10:24:26;;;;;;;1.75;1.10;;;;;;;14.32;43.03;99099.70;1723023;81;21533;-60
2022/01/18 10:26:50;;;;;;;1.70;0.93;;;;;;;13.96;42.74;99102.52;1722846;81;20981;-59
2022/01/18 10:29:19;;;;;;;1.30;0.82;;;;;;;13.97;42.69;99137.23;1731310;81;20918;-58
2022/01/18 10:37:00;;;;;;;3.00;0.90;;;;;;;13.92;43.26;99112.92;1731685;81;21433;-58
2022/01/18 10:39:32;;;;;;;6.95;0.98;;;;;;;13.67;43.37;99125.52;1727624;81;21511;-58
2022/01/18 10:42:02;;;;;;;4.35;1.15;;;;;;;13.72;43.55;99141.09;1728937;81;21546;-57
2022/01/18 10:44:33;;;;;;;1.87;1.12;;;;;;;13.83;43.15;99143.90;1713379;82;21586;-57
2022/01/18 10:47:00;;;;;;;1.37;0.90;;;;;;;13.78;42.46;99132.77;1708619;82;21505;-57
2022/01/18 10:49:39;;;;;;;1.92;1.20;;;;;;;14.01;43.58;99151.97;1718825;82;21569;-58
2022/01/18 10:52:10;;;;;;;3.08;1.50;;;;;;;14.17;43.87;99149.64;1712791;82;21429;-58
2022/01/18 10:54:45;;;;;;;7.25;1.47;;;;;;;14.18;43.59;99136.78;1721671;81;21609;-56
2022/01/18 10:57:15;;;;;;;2.90;1.30;;;;;;;14.06;43.45;99137.11;1693608;83;22788;-57
2022/01/18 10:59:42;;;;;;;1.90;1.40;;;;;;;13.89;42.57;99148.78;1697497;81;21574;-56
2022/01/18 11:02:18;;;;;;;6.10;1.50;;;;;;;13.63;42.28;99124.02;1669399;85;21010;-57
2022/01/18 11:04:49;;;;;;;1.85;1.00;;;;;;;13.50;42.52;99155.64;1662105;84;21572;-55
2022/01/18 11:07:19;;;;;;;2.40;1.00;;;;;;;13.39;42.74;99153.69;1672840;83;21005;-57
2022/01/18 11:09:46;;;;;;;3.08;1.30;;;;;;;13.62;42.52;99175.17;1732203;82;22481;-56
2022/01/18 11:12:14;;;;;;;2.62;1.42;;;;;;;13.74;42.28;99186.27;1723806;82;21488;-56
2022/01/18 11:14:45;;;;;;;2.42;1.20;;;;;;;13.28;41.66;99186.48;1727185;81;21573;-56
2022/01/18 11:17:24;;;;;;;1.20;0.82;;;;;;;13.16;41.86;99168.73;1725630;82;21586;-56
2022/01/18 11:19:51;;;;;;;1.15;0.80;;;;;;;13.23;41.82;99184.09;1733200;82;20930;-56
2022/01/18 11:22:18;;;;;;;3.75;1.15;;;;;;;13.40;42.59;99188.86;1726308;82;22526;-57
2022/01/18 11:24:45;;;;;;;4.12;1.10;;;;;;;13.40;43.02;99191.02;1724507;82;21542;-57
2022/01/18 11:27:14;;;;;;;3.08;1.10;;;;;;;13.22;42.24;99186.83;1720786;82;29438;-56
2022/01/18 11:29:42;;;;;;;1.65;1.10;;;;;;;13.19;42.58;99198.44;1729588;81;21680;-56
2022/01/18 11:32:09;;;;;;;5.37;1.00;;;;;;;13.10;41.96;99207.39;1729467;82;21719;-57
2022/01/18 11:34:57;;;;;;;;;;;;;;;13.31;43.00;99207.91;1730262;82;22488;-57
2022/01/18 11:37:37;;;;;;;5.78;1.45;;;;;;;13.02;41.90;99206.05;1720645;82;21036;-57
2022/01/18 11:40:11;;;;;;;2.42;0.98;;;;;;;13.03;42.41;99205.12;1726874;82;21490;-58
2022/01/18 11:42:53;;;;;;;3.20;1.00;;;;;;;13.21;42.64;99201.83;1727652;82;21036;-57
2022/01/18 11:45:29;;;;;;;2.80;1.27;;;;;;;12.99;42.03;99199.63;1722563;81;21426;-57
2022/01/18 11:48:07;;;;;;;3.08;1.10;;;;;;;13.05;42.56;99214.23;1723992;82;22422;-55
2022/01/18 11:50:40;;;;;;;1.77;0.93;;;;;;;13.37;41.78;99224.68;1724813;82;20952;-56
2022/01/18 11:53:26;;;;;;;1.72;1.10;;;;;;;13.29;42.35;99228.23;1727879;82;21516;-57
2022/01/18 11:55:59;;;;;;;3.65;1.70;;;;;;;13.07;41.34;99222.08;1716704;82;21497;-58
2022/01/18 11:58:26;;;;;;;1.30;1.20;;;;;;;13.32;39.90;99202.53;1721723;81;21538;-56
2022/01/18 12:00:57;;;;;;;;;;;;;;;12.95;41.34;99206.03;1694898;82;22351;-56
2022/01/18 12:03:27;;;;;;;1.90;1.07;;;;;;;12.72;42.67;99236.89;1680145;84;21030;-56
2022/01/18 12:05:59;;;;;;;7.45;1.05;;;;;;;12.95;43.06;99240.81;1694361;82;21426;-57
2022/01/18 12:08:44;;;;;;;3.17;1.30;;;;;;;12.80;42.93;99233.33;1698355;82;21001;-56
2022/01/18 12:11:21;;;;;;;1.40;0.90;;;;;;;12.80;43.02;99241.23;1684362;83;21486;-58
2022/01/18 12:13:48;;;;;;;4.85;1.47;;;;;;;13.09;43.68;99242.17;1685574;84;22481;-56
2022/01/18 12:16:21;;;;;;;3.75;1.40;;;;;;;12.98;43.62;99259.11;1662687;83;21080;-57
2022/01/18 12:18:54;;;;;;;2.55;1.70;;;;;;;13.20;43.80;99260.86;1683186;84;21485;-56
2022/01/18 12:21:26;;;;;;;3.52;1.10;;;;;;;13.03;41.34;99247.34;1683579;83;21796;-58
2022/01/18 12:23:51;;;;;;;3.80;1.50;;;;;;;13.05;43.08;99268.34;1682060;83;21502;-60
2022/01/18 12:26:32;;;;;;;1.95;1.50;;;;;;;13.24;43.52;99254.90;1677482;84;22475;-57
2022/01/18 12:34:32;;;;;;;5.40;1.20;;;;;;;13.26;43.73;99292.64;1688862;82;21482;-57
2022/01/18 12:37:24;;;;;;;2.30;1.60;;;;;;;12.91;42.78;99296.03;1681724;84;21442;-56
2022/01/18 12:40:05;;;;;;;4.62;1.25;;;;;;;12.84;42.60;99283.65;1698302;83;23000;-56
2022/01/18 12:45:22;;;;;;;2.25;1.30;;;;;;;12.79;42.95;99306.34;1694370;82;21454;-57
2022/01/18 12:48:10;;;;;;;3.30;1.37;;;;;;;12.70;42.34;99319.22;1691405;83;21543;-57
2022/01/18 12:50:44;;;;;;;2.47;1.45;;;;;;;12.90;43.47;99316.74;1693291;84;21449;-57
2022/01/18 12:53:13;;;;;;;3.83;1.05;;;;;;;12.53;41.46;99313.09;1688799;83;22439;-57
2022/01/18 12:55:52;;;;;;;6.92;1.37;;;;;;;12.41;42.42;99338.37;1688163;84;21463;-58
2022/01/18 12:58:22;;;;;;;6.05;0.78;;;;;;;12.62;43.12;99342.91;1689504;83;21558;-58
2022/01/18 13:01:08;;;;;;;4.50;1.40;;;;;;;12.76;43.58;99351.36;1703760;81;21544;-57
2022/01/18 13:03:49;;;;;;;7.35;1.35;;;;;;;12.82;42.95;99358.08;1719705;81;20922;-57
2022/01/18 13:06:18;;;;;;;5.00;0.90;;;;;;;12.50;41.85;99342.74;1726073;81;22376;-57
2022/01/18 13:08:54;;;;;;;1.50;0.95;;;;;;;12.52;43.11;99350.94;1730220;81;21584;-57
2022/01/18 13:11:25;;;;;;;1.95;1.47;;;;;;;12.71;43.52;99360.47;1727334;81;21518;-58
2022/01/18 13:14:04;;;;;;;2.45;1.15;;;;;;;12.87;43.27;99376.30;1729391;81;21622;-58
2022/01/18 13:27:26;;;;;;;3.52;2.15;;;;;;;12.42;43.07;99379.61;1730640;81;21482;-57
2022/01/18 13:29:50;;;;;;;3.08;1.75;;;;;;;12.58;44.46;99384.03;1716397;82;21468;-57
2022/01/18 13:32:19;;;;;;;4.35;1.40;;;;;;;12.55;44.07;99379.79;1725688;82;22863;-57
2022/01/18 13:34:48;;;;;;;2.83;1.60;;;;;;;12.31;41.93;99396.47;1732300;82;21620;-57
2022/01/18 13:37:17;;;;;;;1.62;1.32;;;;;;;12.22;42.91;99392.56;1725240;81;21525;-57
2022/01/18 13:39:54;;;;;;;4.00;1.30;;;;;;;12.26;43.28;99411.67;1725729;81;21462;-57
2022/01/18 13:42:31;;;;;;;6.62;1.40;;;;;;;12.56;44.49;99426.78;1732204;81;27616;-57
2022/01/18 13:45:25;;;;;;;2.75;1.55;;;;;;;12.56;43.83;99410.96;1715843;82;22350;-57
2022/01/18 13:48:00;;;;;;;5.55;1.20;;;;;;;12.52;43.12;99416.02;1723690;81;21462;-58
2022/01/18 13:50:50;;;;;;;2.87;1.37;;;;;;;12.40;43.74;99427.62;1722563;81;21494;-59
2022/01/18 13:53:32;;;;;;;1.80;1.50;;;;;;;12.24;42.00;99432.00;1719622;81;21554;-58
2022/01/18 13:56:11;;;;;;;1.87;1.37;;;;;;;12.39;43.12;99440.41;1724254;81;21503;-61
2022/01/18 13:58:45;;;;;;;3.92;1.20;;;;;;;12.37;44.12;99426.93;1715499;81;22568;-58
2022/01/18 14:01:21;;;;;;;2.58;1.40;;;;;;;12.21;42.09;99408.45;1720964;81;21557;-59
2022/01/18 14:03:52;;;;;;;7.62;1.60;;;;;;;12.17;43.31;99436.76;1722569;82;21507;-58
2022/01/18 14:06:20;;;;;;;1.57;1.32;;;;;;;11.88;43.42;99431.64;1721339;82;24149;-58
2022/01/18 14:08:51;;;;;;;;;;;;;;;11.90;42.79;99439.50;1723094;82;21558;-59
2022/01/18 14:11:19;;;;;;;3.67;1.62;;;;;;;12.01;44.33;99449.02;1714462;82;22483;-58
2022/01/18 14:13:46;;;;;;;2.90;1.70;;;;;;;11.90;43.25;99437.71;1711669;82;21045;-58
2022/01/18 14:16:30;;;;;;;3.50;1.77;;;;;;;11.80;43.90;99460.17;1678448;83;21481;-58
2022/01/18 14:19:08;;;;;;;2.90;1.75;;;;;;;11.66;43.38;99470.94;1726550;82;21474;-59
2022/01/18 14:21:43;;;;;;;1.80;1.40;;;;;;;11.89;43.49;99457.07;1719789;82;21462;-58
2022/01/18 14:24:20;;;;;;;5.20;1.80;;;;;;;11.84;43.98;99472.25;1720263;82;22813;-58
2022/01/18 14:26:57;;;;;;;4.42;2.10;;;;;;;11.69;43.81;99477.82;1718597;82;21495;-58
2022/01/18 14:29:43;;;;;;;3.10;1.67;;;;;;;11.81;43.39;99484.25;1679556;83;21468;-58
2022/01/18 14:32:25;;;;;;;3.35;1.98;;;;;;;11.96;44.05;99486.16;1712137;82;21399;-58
2022/01/18 14:34:57;;;;;;;3.72;1.50;;;;;;;11.81;43.43;99490.83;1676634;83;21524;-57
2022/01/18 14:37:36;;;;;;;5.25;2.00;;;;;;;11.66;43.16;99488.05;1720079;82;21540;-58
2022/01/18 14:40:09;;;;;;;3.25;1.57;;;;;;;11.80;43.71;99501.00;1720331;82;21498;-58
2022/01/18 14:42:50;;;;;;;3.17;2.42;;;;;;;11.64;44.67;99499.13;1711227;82;21407;-58
2022/01/18 14:47:43;;;;;;;1.45;1.00;;;;;;;11.72;44.23;99512.39;1663167;85;20432;-59
2022/01/18 14:50:13;;;;;;;1.75;1.00;;;;;;;11.73;43.61;99514.92;1707369;82;22703;-58
2022/01/18 14:52:40;;;;;;;4.20;1.55;;;;;;;11.67;44.43;99533.67;1710851;82;21430;-59
2022/01/18 14:55:07;;;;;;;4.92;1.50;;;;;;;11.77;44.49;99540.65;1717946;82;21442;-58
2022/01/18 14:57:35;;;;;;;4.85;2.08;;;;;;;11.81;44.79;99547.47;1714564;82;21501;-60
2022/01/18 15:00:05;;;;;;;2.85;2.00;;;;;;;11.78;44.46;99545.84;1717789;82;21013;-59
2022/01/18 15:02:32;;;;;;;5.53;1.92;;;;;;;11.65;43.37;99548.70;1711549;82;22402;-59
2022/01/18 15:04:59;;;;;;;2.92;1.92;;;;;;;11.65;44.37;99548.70;1716276;82;21493;-58
2022/01/18 15:07:25;;;;;;;3.93;1.70;;;;;;;11.51;43.56;99561.22;1718834;82;21530;-60
2022/01/18 15:09:52;;;;;;;2.83;1.30;;;;;;;11.42;43.86;99570.88;1717103;82;21550;-60
2022/01/18 15:12:20;;;;;;;5.20;2.52;;;;;;;11.57;44.42;99576.72;1720252;82;21496;-60
2022/01/18 15:14:47;;;;;;;2.52;1.60;;;;;;;11.56;44.40;99575.47;1715201;81;22512;-57
2022/01/18 15:17:15;;;;;;;;;;;;;;;11.47;44.30;99581.58;1723661;81;21482;-58
2022/01/18 15:19:41;;;;;;;4.03;2.00;;;;;;;11.40;44.19;99580.63;1714090;81;20451;-58
2022/01/18 15:22:09;;;;;;;4.17;1.50;;;;;;;11.44;44.64;99585.66;1713771;81;21116;-57
2022/01/18 15:24:37;;;;;;;6.78;1.70;;;;;;;11.43;44.48;99585.28;1721327;81;21541;-59
2022/01/18 15:27:04;;;;;;;4.35;2.20;;;;;;;11.32;44.39;99590.20;1664709;84;22503;-57
2022/01/18 15:29:32;;;;;;;2.70;1.80;;;;;;;11.44;44.81;99586.97;1663106;84;21544;-57
2022/01/18 15:31:59;;;;;;;3.80;1.98;;;;;;;11.27;44.30;99598.77;1713959;81;21515;-57
2022/01/18 15:34:28;;;;;;;1.80;1.37;;;;;;;11.22;42.32;99594.17;1714455;81;21646;-58
2022/01/18 15:36:55;;;;;;;3.83;1.72;;;;;;;11.46;44.92;99607.97;1658698;83;21571;-56
2022/01/18 15:39:22;;;;;;;4.78;1.67;;;;;;;11.39;44.76;99608.70;1660748;84;21557;-56
2022/01/18 15:41:48;;;;;;;3.45;1.67;;;;;;;11.32;43.39;99611.26;1660238;83;21502;-58
2022/01/18 15:44:15;;;;;;;3.70;1.67;;;;;;;11.39;43.63;99616.60;1715636;81;21423;-57
2022/01/18 15:46:43;;;;;;;3.85;1.92;;;;;;;11.46;44.30;99618.50;1718644;81;21443;-57
2022/01/18 15:49:09;;;;;;;4.45;1.80;;;;;;;11.50;44.65;99620.06;1663318;84;21515;-56
2022/01/18 15:51:36;;;;;;;3.10;1.92;;;;;;;11.42;44.58;99628.79;1711470;82;22500;-56
2022/01/18 15:54:03;;;;;;;3.08;2.05;;;;;;;11.38;43.03;99636.44;1713869;82;21543;-56
2022/01/18 15:56:30;;;;;;;3.75;1.90;;;;;;;11.13;44.34;99646.74;1668346;83;21469;-56
2022/01/18 15:58:56;;;;;;;2.17;1.70;;;;;;;11.20;44.66;99642.08;1716685;82;21499;-56
2022/01/18 16:01:23;;;;;;;5.83;2.10;;;;;;;11.28;43.85;99654.41;1676242;83;21519;-56
2022/01/18 16:03:51;;;;;;;3.67;1.57;;;;;;;11.34;44.67;99655.47;1712766;82;22730;-56
2022/01/18 16:06:18;;;;;;;3.10;1.80;;;;;;;11.16;43.96;99653.67;1715985;82;21567;-56
2022/01/18 16:08:44;;;;;;;4.87;2.27;;;;;;;11.12;43.80;99662.62;1718861;82;20953;-56
2022/01/18 16:11:14;;;;;;;3.45;2.25;;;;;;;11.21;44.59;99668.80;1708292;82;21436;-56
2022/01/18 16:13:41;;;;;;;7.08;2.50;;;;;;;11.36;44.75;99669.85;1724013;82;21573;-56
2022/01/18 16:16:08;;;;;;;2.57;1.90;;;;;;;11.31;44.67;99672.70;1687754;83;22486;-55
2022/01/18 16:18:35;;;;;;;3.83;1.90;;;;;;;11.07;42.35;99679.45;1676867;83;21437;-56
2022/01/18 16:21:02;;;;;;;5.08;2.08;;;;;;;11.21;43.85;99680.64;1713589;82;21556;-55
2022/01/18 16:23:29;;;;;;;3.77;1.70;;;;;;;11.04;43.02;99677.44;1718171;82;21503;-56
2022/01/18 16:25:56;;;;;;;3.33;1.82;;;;;;;11.16;44.79;99691.36;1707795;82;21502;-55
2022/01/18 16:28:24;;;;;;;3.75;1.52;;;;;;;11.09;43.82;99684.65;1714883;82;22729;-56
2022/01/18 16:30:53;;;;;;;4.17;2.17;;;;;;;11.22;44.45;99702.07;1723102;82;22896;-56
2022/01/18 16:33:20;;;;;;;5.90;2.10;;;;;;;11.18;44.71;99695.23;1718164;82;21527;-57
2022/01/18 16:35:47;;;;;;;6.53;2.02;;;;;;;11.02;44.26;99713.02;1718396;82;21522;-56
2022/01/18 16:38:14;;;;;;;6.55;1.70;;;;;;;11.09;44.64;99714.91;1681576;83;21461;-56
2022/01/18 16:40:41;;;;;;;2.90;1.72;;;;;;;11.09;44.16;99705.70;1723060;82;22371;-56
2022/01/18 16:43:07;;;;;;;1.87;1.40;;;;;;;11.01;44.80;99713.93;1719999;82;21446;-55
2022/01/18 16:45:35;;;;;;;1.87;1.17;;;;;;;10.89;44.09;99712.69;1714651;82;22198;-56
2022/01/18 16:48:02;;;;;;;;;;;;;;;10.95;44.81;99720.78;1724401;82;21443;-56
2022/01/18 16:50:29;;;;;;;;;;;;;;;10.88;44.29;99728.53;1726114;82;20453;-59
2022/01/18 16:52:55;;;;;;;5.05;1.32;;;;;;;10.71;43.27;99726.63;1713128;82;22728;-56
2022/01/18 16:55:22;;;;;;;5.50;1.87;;;;;;;10.78;44.66;99745.17;1722138;82;21521;-58
2022/01/18 16:57:49;;;;;;;7.07;1.40;;;;;;;10.79;44.34;99742.92;1717037;82;21416;-57
2022/01/18 17:00:17;;;;;;;3.87;1.20;;;;;;;10.81;44.50;99745.05;1717205;82;21446;-55
2022/01/18 17:02:43;;;;;;;2.40;1.42;;;;;;;10.76;43.53;99755.38;1721963;81;21601;-56
2022/01/18 17:05:12;;;;;;;5.90;2.20;;;;;;;10.83;44.53;99751.10;1732269;82;22508;-56
2022/01/18 17:07:39;;;;;;;2.47;1.40;;;;;;;10.52;42.98;99754.13;1728096;81;21465;-56
2022/01/18 17:10:07;;;;;;;2.37;1.20;;;;;;;10.52;42.32;99764.18;1718333;82;21530;-56
2022/01/18 17:12:34;;;;;;;2.87;1.70;;;;;;;10.69;44.65;99781.05;1725101;82;21474;-56
2022/01/18 17:15:01;;;;;;;2.15;1.20;;;;;;;10.63;43.77;99769.48;1728094;81;21477;-56
2022/01/18 17:17:28;;;;;;;;;;;;;;;10.31;42.41;99762.43;1733313;82;22526;-57
2022/01/18 17:19:56;;;;;;;1.70;1.05;;;;;;;10.53;44.18;99793.98;1731608;82;20401;-57
2022/01/18 17:22:22;;;;;;;3.50;1.77;;;;;;;10.74;45.40;99811.09;1730318;82;21505;-57
2022/01/18 17:24:49;;;;;;;16.27;2.17;;;;;;;10.76;44.94;99808.82;1726143;81;21014;-57
2022/01/18 17:27:16;;;;;;;3.72;1.22;;;;;;;10.71;44.34;99798.47;1720774;81;21509;-58
2022/01/18 17:29:42;;;;;;;3.77;1.57;;;;;;;10.63;43.39;99799.25;1723511;82;22741;-57
2022/01/18 17:32:09;;;;;;;6.20;1.37;;;;;;;10.61;44.02;99799.78;1725514;81;21343;-58
2022/01/18 17:34:36;;;;;;;3.58;1.98;;;;;;;10.61;44.07;99814.70;1732772;81;21578;-58
2022/01/18 17:37:03;;;;;;;5.08;1.70;;;;;;;10.46;43.58;99823.59;1729581;82;21657;-57
2022/01/18 17:39:30;;;;;;;4.97;2.17;;;;;;;10.38;43.93;99838.81;1731681;82;21434;-57
2022/01/18 17:41:56;;;;;;;2.62;1.40;;;;;;;10.51;44.24;99839.20;1730838;81;22405;-58
2022/01/18 17:44:22;;;;;;;8.13;1.50;;;;;;;10.54;43.30;99841.69;1727890;82;21444;-57
2022/01/18 17:46:49;;;;;;;2.22;1.35;;;;;;;10.47;43.93;99837.14;1735302;82;21537;-58
2022/01/18 17:49:16;;;;;;;2.67;1.60;;;;;;;10.51;44.47;99851.88;1730215;81;21621;-58
2022/01/18 17:51:43;;;;;;;1.90;1.60;;;;;;;10.48;43.85;99830.95;1727000;82;21505;-57
2022/01/18 17:54:09;;;;;;;4.33;1.67;;;;;;;10.48;43.85;99830.95;1731521;81;21923;-57
2022/01/18 17:56:36;;;;;;;4.80;1.35;;;;;;;10.56;43.49;99849.05;1725925;81;21422;-58
2022/01/18 17:59:03;;;;;;;3.80;1.67;;;;;;;10.59;44.81;99838.89;1718852;82;21415;-58
2022/01/18 18:01:32;;;;;;;4.37;1.82;;;;;;;10.56;44.50;99849.52;1725041;82;21235;-57
2022/01/18 18:03:58;;;;;;;;;;;;;;;10.33;43.59;99844.70;1727392;82;21479;-58
2022/01/18 18:06:24;;;;;;;2.17;1.35;;;;;;;10.10;42.24;99854.28;1726232;82;22493;-57
2022/01/18 18:08:51;;;;;;;3.10;1.60;;;;;;;10.22;44.38;99848.16;1720322;82;21502;-57
2022/01/18 18:11:19;;;;;;;3.70;1.70;;;;;;;10.25;44.38;99861.20;1714505;82;21613;-58
2022/01/18 18:13:47;;;;;;;3.50;1.55;;;;;;;10.34;44.56;99863.51;1723717;82;21556;-57
2022/01/18 18:16:13;;;;;;;3.60;1.60;;;;;;;10.27;44.51;99873.35;1720866;82;21419;-57
2022/01/18 18:18:40;;;;;;;6.00;1.50;;;;;;;10.08;44.37;99877.59;1716928;82;22489;-58
2022/01/18 18:21:06;;;;;;;2.95;1.40;;;;;;;10.28;44.96;99893.47;1720008;82;21487;-57
2022/01/18 18:23:33;;;;;;;6.03;1.60;;;;;;;10.13;44.13;99883.08;1719878;81;21480;-57
2022/01/18 18:25:59;;;;;;;2.10;1.40;;;;;;;10.26;44.96;99899.22;1723240;81;21462;-59
2022/01/18 18:28:26;;;;;;;5.60;1.30;;;;;;;10.12;42.73;99885.75;1718707;82;21335;-58
2022/01/18 18:30:53;;;;;;;2.95;1.67;;;;;;;10.07;44.72;99909.55;1720873;82;22495;-58
2022/01/18 18:33:20;;;;;;;4.87;1.70;;;;;;;10.17;44.73;99902.22;1718444;82;21459;-59
2022/01/18 18:35:47;;;;;;;6.80;1.55;;;;;;;10.18;44.49;99905.23;1715359;82;21722;-58
2022/01/18 18:38:16;;;;;;;2.63;1.57;;;;;;;10.28;45.26;99900.48;1723225;82;21905;-57
2022/01/18 18:40:47;;;;;;;3.12;1.52;;;;;;;10.10;43.87;99894.16;1722672;82;21566;-58
2022/01/18 18:43:16;;;;;;;5.42;1.37;;;;;;;10.05;44.69;99891.67;1713405;82;22601;-57
2022/01/18 18:45:44;;;;;;;1.82;1.20;;;;;;;10.11;44.68;99890.16;1721978;82;21551;-58
2022/01/18 18:48:12;;;;;;;2.35;1.32;;;;;;;9.98;43.74;99875.73;1714081;82;21455;-56
2022/01/18 18:50:41;;;;;;;2.72;1.80;;;;;;;9.89;44.30;99872.16;1714516;82;20989;-58
2022/01/18 18:53:08;;;;;;;2.67;1.72;;;;;;;9.95;44.39;99904.77;1714613;82;21029;-58
2022/01/18 18:55:37;;;;;;;2.50;1.35;;;;;;;9.91;44.61;99909.73;1709109;82;22475;-58
2022/01/18 19:05:42;;;;;;;1.70;1.30;;;;;;;9.96;44.05;99956.37;1713535;82;20973;-58
2022/01/18 19:08:10;;;;;;;1.85;1.30;;;;;;;9.99;44.73;99974.66;1725944;82;22445;-59
2022/01/18 19:10:36;;;;;;;2.93;1.83;;;;;;;9.85;44.15;99976.46;1719058;82;21020;-58
2022/01/18 19:13:03;;;;;;;2.95;1.77;;;;;;;9.94;44.37;99977.89;1681167;83;20921;-57
2022/01/18 19:15:31;;;;;;;;;;;;;;;10.01;45.07;99984.66;1681807;83;20999;-57
2022/01/18 19:17:58;;;;;;;3.08;1.55;;;;;;;9.82;42.52;99994.94;1675315;83;20424;-57
2022/01/18 19:20:28;;;;;;;2.52;1.60;;;;;;;9.96;44.26;99993.14;1722554;82;22856;-58
2022/01/18 19:22:56;;;;;;;2.45;1.90;;;;;;;10.01;45.34;100000.88;1719170;82;21367;-57
2022/01/18 19:25:24;;;;;;;5.40;1.98;;;;;;;10.01;45.10;100003.04;1712551;82;21544;-57
2022/01/18 19:27:51;;;;;;;4.75;1.72;;;;;;;9.80;44.15;99993.28;1669894;84;21441;-57
2022/01/18 19:30:18;;;;;;;4.25;1.52;;;;;;;9.65;43.24;99998.59;1683726;83;21641;-57
2022/01/18 19:32:46;;;;;;;3.50;2.05;;;;;;;9.73;44.73;100000.50;1673384;84;22508;-57
2022/01/18 19:35:13;;;;;;;2.95;1.75;;;;;;;9.73;44.81;99992.16;1721479;82;21409;-57
2022/01/18 19:37:41;;;;;;;2.25;1.50;;;;;;;9.83;45.32;100004.55;1686981;83;21531;-57
2022/01/18 19:40:11;;;;;;;2.25;1.45;;;;;;;9.84;44.73;100002.30;1724774;81;21477;-57
2022/01/18 19:42:40;;;;;;;3.58;1.62;;;;;;;9.64;44.39;100002.97;1714465;80;21498;-58
2022/01/18 19:45:10;;;;;;;2.72;1.47;;;;;;;9.67;44.32;99992.38;1716585;82;21527;-58
2022/01/18 19:47:38;;;;;;;2.70;1.70;;;;;;;9.65;44.59;100009.09;1720584;82;21539;-56
2022/01/18 19:50:06;;;;;;;3.47;1.87;;;;;;;9.66;44.49;100002.48;1729028;82;21598;-57
2022/01/18 19:52:33;;;;;;;2.83;1.80;;;;;;;9.71;44.89;100021.55;1715420;81;21422;-57
2022/01/18 19:55:00;;;;;;;4.55;1.92;;;;;;;9.81;45.00;100025.19;1724447;82;21564;-57
2022/01/18 19:57:26;;;;;;;4.83;2.22;;;;;;;9.78;44.29;100008.23;1717549;82;22451;-58
2022/01/18 19:59:53;;;;;;;2.95;1.72;;;;;;;9.59;43.44;100039.03;1712548;82;20911;-58
2022/01/18 20:02:19;;;;;;;2.45;1.82;;;;;;;9.77;44.90;100042.81;1717141;82;21455;-57
2022/01/18 20:04:46;;;;;;;4.33;1.80;;;;;;;9.80;44.90;100053.69;1719712;82;20997;-58
2022/01/18 20:07:13;;;;;;;5.17;2.40;;;;;;;9.78;44.87;100051.56;1721282;82;21086;-58
2022/01/18 20:09:39;;;;;;;3.45;2.00;;;;;;;9.63;44.13;100068.22;1724527;82;22639;-57
2022/01/18 20:12:07;;;;;;;3.00;1.90;;;;;;;9.67;44.85;100071.14;1726204;82;20924;-58
2022/01/18 20:14:35;;;;;;;3.85;1.92;;;;;;;9.58;43.55;100081.94;1721431;82;21148;-57
2022/01/18 20:17:06;;;;;;;4.80;2.00;;;;;;;9.59;43.70;100088.03;1719525;82;21538;-58
2022/01/18 20:19:35;;;;;;;3.40;2.00;;;;;;;9.45;43.21;100096.35;1723948;82;20953;-57
2022/01/18 20:22:07;;;;;;;2.65;1.67;;;;;;;9.32;43.42;100101.99;1719559;82;21965;-56
2022/01/18 20:24:36;;;;;;;4.03;1.67;;;;;;;9.45;43.83;100112.10;1722992;82;20986;-56
2022/01/18 20:27:16;;;;;;;4.28;1.80;;;;;;;9.44;44.11;100113.02;1723245;82;21582;-56
2022/01/18 20:29:39;;;;;;;4.85;1.60;;;;;;;9.43;44.49;100112.14;1716422;82;21478;-56
2022/01/18 20:32:06;;;;;;;3.47;1.70;;;;;;;9.23;44.22;100118.02;1715569;82;21550;-57
2022/01/18 20:34:34;;;;;;;;;;;;;;;9.14;43.26;100119.13;1722111;82;21620;-57
2022/01/18 20:37:04;;;;;;;2.12;1.45;;;;;;;9.39;44.65;100129.36;1721206;81;20427;-58
2022/01/18 20:39:31;;;;;;;4.30;1.70;;;;;;;9.51;44.97;100132.91;1727029;81;20918;-58
2022/01/18 20:44:46;;;;;;;3.92;1.67;;;;;;;9.61;44.67;100140.92;1722733;82;21485;-58
2022/01/18 20:47:13;;;;;;;4.58;2.20;;;;;;;9.50;44.36;100137.77;1719460;82;22655;-57
2022/01/18 20:49:40;;;;;;;1.75;1.40;;;;;;;9.57;43.30;100144.98;1723975;82;27795;-56
2022/01/18 20:52:07;;;;;;;1.85;1.40;;;;;;;9.53;44.38;100126.72;1722608;82;21518;-57
2022/01/18 20:54:33;;;;;;;2.80;1.57;;;;;;;9.45;44.11;100135.72;1672282;83;21635;-58
2022/01/18 20:57:00;;;;;;;2.60;1.50;;;;;;;9.45;43.79;100135.72;1729558;82;21502;-57
2022/01/18 20:59:27;;;;;;;3.83;1.75;;;;;;;9.42;44.63;100143.67;1722075;82;22203;-58
2022/01/18 21:01:54;;;;;;;3.27;1.77;;;;;;;9.40;44.07;100140.24;1718015;82;21471;-57
2022/01/18 21:04:20;;;;;;;4.65;1.80;;;;;;;9.20;43.16;100142.16;1720973;82;21546;-57
2022/01/18 21:06:47;;;;;;;3.12;1.55;;;;;;;9.12;43.62;100135.83;1729538;82;21578;-58
2022/01/18 21:09:15;;;;;;;2.80;1.57;;;;;;;9.16;44.03;100153.20;1724909;82;21506;-57
2022/01/18 21:11:50;;;;;;;2.60;1.52;;;;;;;8.92;42.83;100145.11;1728844;81;22238;-57
2022/01/18 21:14:38;;;;;;;3.62;1.62;;;;;;;9.06;44.97;100148.67;1730703;80;21048;-57
2022/01/18 21:16:55;;;;;;;2.37;1.62;;;;;;;9.01;44.54;100166.30;1722693;80;21495;-57
2022/01/18 21:19:22;;;;;;;2.97;2.00;;;;;;;8.93;43.57;100155.17;1730380;82;21632;-56
2022/01/18 21:21:48;;;;;;;2.05;1.42;;;;;;;8.78;42.85;100155.14;1727335;82;21530;-56
2022/01/18 21:24:15;;;;;;;3.60;1.52;;;;;;;8.79;44.38;100150.74;1729994;82;22016;-56
2022/01/18 21:26:42;;;;;;;3.87;1.70;;;;;;;8.80;44.42;100159.00;1732590;82;21062;-56
2022/01/18 21:29:09;;;;;;;4.05;1.98;;;;;;;8.69;43.66;100163.25;1672742;83;21616;-57
2022/01/18 21:31:39;;;;;;;4.08;1.92;;;;;;;8.75;44.26;100165.23;1666081;85;21511;-57
2022/01/18 21:34:08;;;;;;;3.58;1.72;;;;;;;8.66;44.04;100173.80;1662210;83;21836;-57
2022/01/18 21:36:36;;;;;;;3.98;2.20;;;;;;;8.63;44.35;100166.04;1665835;85;22171;-57
2022/01/18 21:39:07;;;;;;;3.12;1.80;;;;;;;8.67;44.34;100162.43;1700543;83;21434;-57
2022/01/18 21:41:34;;;;;;;2.67;1.80;;;;;;;8.68;44.82;100166.33;1662687;85;21499;-57
2022/01/18 21:44:01;;;;;;;2.95;1.85;;;;;;;8.47;44.30;100170.34;1663327;84;21520;-56
2022/01/18 21:46:28;;;;;;;;;;;;;;;8.53;44.41;100171.52;1673280;83;21596;-56
2022/01/18 21:48:57;;;;;;;3.87;2.12;;;;;;;8.40;43.92;100171.39;1700432;83;21929;-57
2022/01/18 21:51:24;;;;;;;3.47;1.95;;;;;;;8.45;44.46;100191.80;1692967;83;21579;-57
2022/01/18 21:53:51;;;;;;;3.22;2.22;;;;;;;8.47;44.39;100188.69;1679432;83;21467;-57
2022/01/18 21:56:17;;;;;;;3.80;1.67;;;;;;;8.37;44.44;100185.87;1666125;83;20995;-57
2022/01/18 21:58:44;;;;;;;4.50;2.30;;;;;;;8.33;44.48;100190.33;1693794;83;21593;-58
2022/01/18 22:01:12;;;;;;;2.40;1.57;;;;;;;8.30;44.00;100195.63;1696138;83;21655;-57
2022/01/18 22:03:39;;;;;;;6.70;1.62;;;;;;;8.36;44.55;100195.50;1659227;85;21602;-57
2022/01/18 22:06:07;;;;;;;4.28;2.67;;;;;;;8.30;43.87;100196.94;1646559;85;25595;-57
2022/01/18 22:08:34;;;;;;;4.75;2.10;;;;;;;8.32;44.31;100202.14;1649367;85;21473;-57
2022/01/18 22:11:00;;;;;;;6.53;1.87;;;;;;;8.14;44.10;100192.53;1649046;85;21588;-57
2022/01/18 22:13:28;;;;;;;3.50;2.12;;;;;;;8.01;44.71;100196.80;1652517;85;21761;-57
2022/01/18 22:17:24;;;;;;;3.75;2.05;;;;;;;5.05;51.58;100207.94;1774706;78;22574;-57
2022/01/18 22:19:53;;;;;;;3.60;1.72;;;;;;;7.87;45.23;100198.41;1733372;80;21420;-56
2022/01/18 22:22:19;;;;;;;3.40;1.70;;;;;;;7.88;44.03;100194.91;1731580;81;22162;-58
2022/01/18 22:24:46;;;;;;;4.00;2.10;;;;;;;7.97;44.87;100203.41;1744107;80;21659;-57
2022/01/18 22:27:12;;;;;;;4.03;1.92;;;;;;;8.08;44.94;100204.91;1737717;80;21502;-57